Time;durP1;ratioP1;P1;durP2;ratioP2;P2;SDS_P1;SDS_P2;PMS_P1;PMS_P2;Temp;Humidity;BMP_temperature;BMP_pressure;BME280_temperature;BME280_humidity;BME280_pressure;Samples;Min_cycle;Max_cycle;Signal;HPM_P1;HPM_P2
2023/03/27 00:00:57;;;;;;;6.43;1.00;;;4.10;99.90;;;;;;4984116;28;20065;-67
2023/03/27 00:03:24;;;;;;;9.25;0.73;;;4.10;99.90;;;;;;4984566;28;20037;-67
2023/03/27 00:06:15;;;;;;;4.15;0.65;;;4.10;99.90;;;;;;4978832;28;20104;-66
2023/03/27 00:08:45;;;;;;;1.30;0.50;;;4.10;99.90;;;;;;5000578;28;20088;-66
2023/03/27 00:11:11;;;;;;;2.25;0.70;;;4.10;99.90;;;;;;4997313;28;20052;-67
2023/03/27 00:13:40;;;;;;;1.70;0.45;;;4.10;99.90;;;;;;4983267;28;20046;-67
2023/03/27 00:16:07;;;;;;;5.50;0.88;;;4.10;99.90;;;;;;4977057;28;20045;-67
2023/03/27 00:18:35;;;;;;;1.83;0.70;;;4.10;99.90;;;;;;4979894;28;20050;-67
2023/03/27 00:21:02;;;;;;;6.65;0.60;;;4.10;99.90;;;;;;4983406;28;20455;-67
2023/03/27 00:23:31;;;;;;;;;;;4.10;99.90;;;;;;4982901;28;20091;-66
2023/03/27 00:25:57;;;;;;;5.82;0.50;;;4.10;99.90;;;;;;4992398;28;20083;-67
2023/03/27 00:28:26;;;;;;;4.68;0.68;;;4.10;99.90;;;;;;4998417;28;20045;-67
2023/03/27 00:30:56;;;;;;;3.65;0.82;;;4.10;99.90;;;;;;4982192;28;20054;-67
2023/03/27 00:33:25;;;;;;;8.68;1.30;;;4.10;99.90;;;;;;4999035;28;20056;-67
2023/03/27 00:35:52;;;;;;;5.95;0.95;;;4.10;99.90;;;;;;4965772;28;20188;-67
2023/03/27 00:38:18;;;;;;;7.03;0.75;;;4.10;99.90;;;;;;4983634;28;20111;-67
2023/03/27 00:40:45;;;;;;;7.78;0.65;;;4.10;99.90;;;;;;4977200;28;20045;-67
2023/03/27 00:43:26;;;;;;;3.05;0.70;;;4.10;99.90;;;;;;4995050;28;20050;-67
2023/03/27 00:46:00;;;;;;;5.43;0.70;;;4.10;99.90;;;;;;4984020;28;20048;-67
2023/03/27 00:48:29;;;;;;;3.78;0.70;;;4.10;99.90;;;;;;5003449;28;20553;-67
2023/03/27 00:50:57;;;;;;;3.70;0.60;;;4.00;99.90;;;;;;4972412;28;20045;-68
2023/03/27 00:53:26;;;;;;;10.20;1.25;;;4.00;99.90;;;;;;4970685;28;20064;-67
2023/03/27 00:55:55;;;;;;;2.75;0.57;;;4.00;99.90;;;;;;5000255;28;20405;-67
2023/03/27 00:58:31;;;;;;;4.13;0.63;;;4.00;99.90;;;;;;5004150;28;20037;-68
2023/03/27 01:00:58;;;;;;;5.27;0.53;;;4.00;99.90;;;;;;4988495;28;20073;-69
2023/03/27 01:03:26;;;;;;;2.70;0.88;;;3.90;99.90;;;;;;4990371;28;20295;-69
2023/03/27 01:05:54;;;;;;;2.90;0.47;;;3.90;99.90;;;;;;4992553;28;20530;-69
2023/03/27 01:08:21;;;;;;;5.35;0.82;;;3.90;99.90;;;;;;5001962;28;20048;-69
2023/03/27 01:11:32;;;;;;;3.40;0.65;;;3.90;99.90;;;;;;4971973;28;20124;-69
2023/03/27 01:14:11;;;;;;;1.63;0.40;;;3.80;99.90;;;;;;4964494;28;20049;-69
2023/03/27 01:17:08;;;;;;;4.90;0.70;;;3.80;99.90;;;;;;4987839;28;20104;-67
2023/03/27 01:19:40;;;;;;;5.70;0.52;;;3.80;99.90;;;;;;4954913;28;20062;-67
2023/03/27 01:22:15;;;;;;;5.65;0.88;;;3.80;99.90;;;;;;4987386;28;20073;-67
2023/03/27 01:25:01;;;;;;;3.17;0.70;;;3.70;99.90;;;;;;4999713;28;20133;-67
2023/03/27 01:27:51;;;;;;;2.78;0.63;;;3.70;99.90;;;;;;4982046;28;20165;-67
2023/03/27 01:30:21;;;;;;;13.23;0.98;;;3.70;99.90;;;;;;4982155;28;20038;-67
2023/03/27 01:54:11;;;;;;;4.05;0.52;;;3.60;99.90;;;;;;5028708;22;20069;-71
2023/03/27 01:56:52;;;;;;;9.27;1.00;;;3.60;99.90;;;;;;5016263;28;20488;-71
2023/03/27 01:59:20;;;;;;;3.10;0.90;;;3.60;99.90;;;;;;5001671;28;20041;-71
2023/03/27 02:01:53;;;;;;;2.83;0.60;;;3.60;99.90;;;;;;5003700;28;20399;-71
2023/03/27 02:04:27;;;;;;;5.95;0.85;;;3.60;99.90;;;;;;4987261;28;20403;-71
2023/03/27 02:07:01;;;;;;;4.82;0.52;;;3.60;99.90;;;;;;4975216;28;20128;-71
2023/03/27 02:09:35;;;;;;;6.55;0.98;;;3.60;99.90;;;;;;4989416;28;20077;-71
2023/03/27 02:12:38;;;;;;;3.70;1.27;;;3.60;99.90;;;;;;4987615;28;20133;-71
2023/03/27 02:15:10;;;;;;;3.75;0.70;;;3.60;99.90;;;;;;5006300;28;20084;-71
2023/03/27 02:17:43;;;;;;;0.77;0.40;;;3.60;99.90;;;;;;4995811;28;20446;-71
2023/03/27 02:20:15;;;;;;;2.47;0.82;;;3.50;99.90;;;;;;5007565;28;20042;-71
2023/03/27 02:22:50;;;;;;;3.30;0.77;;;3.50;99.90;;;;;;5000063;28;20128;-71
2023/03/27 02:25:23;;;;;;;3.97;1.20;;;3.50;99.90;;;;;;5005202;28;20546;-71
2023/03/27 02:27:56;;;;;;;2.55;0.60;;;3.50;99.90;;;;;;4988068;28;20042;-69
2023/03/27 02:30:56;;;;;;;6.78;1.33;;;3.50;99.90;;;;;;4982961;28;20157;-70
2023/03/27 02:33:35;;;;;;;1.50;0.43;;;3.50;99.90;;;;;;4978954;28;20068;-70
2023/03/27 02:36:29;;;;;;;4.45;0.55;;;3.50;99.90;;;;;;4981452;28;20042;-70
2023/03/27 02:39:21;;;;;;;3.47;0.60;;;3.50;99.90;;;;;;4996120;28;20046;-70
2023/03/27 02:42:11;;;;;;;3.63;0.30;;;3.40;99.90;;;;;;4982208;28;20127;-71
2023/03/27 02:44:50;;;;;;;2.17;0.50;;;3.50;99.90;;;;;;4974682;28;20111;-70
2023/03/27 02:47:21;;;;;;;2.53;1.30;;;3.50;99.90;;;;;;4968142;28;20061;-70
2023/03/27 02:50:00;;;;;;;0.93;0.40;;;3.50;99.90;;;;;;4984998;28;20048;-70
2023/03/27 02:52:35;;;;;;;4.45;0.60;;;3.50;99.90;;;;;;4988854;28;20046;-70
2023/03/27 02:55:07;;;;;;;2.45;0.70;;;3.60;99.90;;;;;;4983370;28;20046;-72
2023/03/27 02:57:39;;;;;;;2.33;0.50;;;3.60;99.90;;;;;;5002502;28;20116;-70
2023/03/27 03:00:24;;;;;;;3.33;0.70;;;3.60;99.90;;;;;;4988283;28;20140;-70
2023/03/27 03:03:26;;;;;;;3.25;0.55;;;3.70;99.90;;;;;;4974720;28;20053;-70
2023/03/27 03:05:53;;;;;;;1.75;0.43;;;3.60;99.90;;;;;;4971851;28;20577;-70
2023/03/27 03:08:21;;;;;;;2.75;0.52;;;3.60;99.90;;;;;;4985746;28;21728;-71
2023/03/27 03:10:47;;;;;;;3.58;0.88;;;3.50;99.90;;;;;;4994811;28;20092;-71
2023/03/27 03:13:14;;;;;;;2.00;0.45;;;3.50;99.90;;;;;;4982529;28;20042;-71
2023/03/27 03:15:40;;;;;;;2.80;0.65;;;3.40;99.90;;;;;;4988565;28;20053;-71
2023/03/27 03:18:08;;;;;;;1.17;0.50;;;3.40;99.90;;;;;;4986342;28;20045;-71
2023/03/27 03:20:34;;;;;;;3.97;0.70;;;3.30;99.90;;;;;;4983850;28;20076;-71
2023/03/27 03:23:00;;;;;;;6.32;0.68;;;3.30;99.90;;;;;;5006843;28;20042;-71
2023/03/27 03:25:26;;;;;;;6.07;1.63;;;3.30;99.90;;;;;;4985119;28;20057;-71
2023/03/27 03:27:57;;;;;;;2.70;0.70;;;3.20;99.90;;;;;;4999970;28;20052;-71
2023/03/27 03:30:28;;;;;;;4.15;0.52;;;3.20;99.90;;;;;;4999348;28;20041;-71
2023/03/27 03:32:55;;;;;;;4.15;0.55;;;3.20;99.90;;;;;;4996014;28;20046;-71
2023/03/27 03:35:22;;;;;;;6.28;0.95;;;3.20;99.90;;;;;;4982647;28;20145;-72
2023/03/27 03:37:50;;;;;;;4.38;0.43;;;3.20;99.90;;;;;;5000040;28;20485;-71
2023/03/27 03:40:17;;;;;;;4.00;0.90;;;3.10;99.90;;;;;;4999137;28;20248;-71
2023/03/27 03:42:50;;;;;;;2.35;0.70;;;3.20;99.90;;;;;;4973585;28;20522;-71
2023/03/27 03:45:17;;;;;;;4.03;0.90;;;3.20;99.90;;;;;;4988437;28;20420;-71
2023/03/27 03:47:44;;;;;;;3.03;0.65;;;3.20;99.90;;;;;;5002264;28;20376;-71
2023/03/27 03:50:13;;;;;;;7.20;1.15;;;3.20;99.90;;;;;;4983792;28;20041;-71
2023/03/27 03:52:39;;;;;;;2.63;0.50;;;3.20;99.90;;;;;;4984209;28;20561;-71
2023/03/27 03:55:10;;;;;;;6.45;1.08;;;3.20;99.90;;;;;;4982606;28;20081;-71
2023/03/27 03:57:36;;;;;;;9.25;1.58;;;3.20;99.90;;;;;;4991454;28;20504;-69
2023/03/27 04:00:11;;;;;;;4.50;0.80;;;3.20;99.90;;;;;;4999407;28;20038;-68
2023/03/27 04:02:37;;;;;;;4.78;0.85;;;3.20;99.90;;;;;;4978054;28;20753;-69
2023/03/27 04:05:03;;;;;;;1.95;0.60;;;3.20;99.90;;;;;;5008937;28;20045;-74
2023/03/27 04:07:32;;;;;;;3.85;0.70;;;3.20;99.90;;;;;;4984183;28;20384;-75
2023/03/27 04:10:00;;;;;;;3.75;0.70;;;3.20;99.90;;;;;;4961425;28;20096;-74
2023/03/27 04:12:26;;;;;;;2.80;0.70;;;3.20;99.90;;;;;;4987722;28;20092;-71
2023/03/27 04:14:53;;;;;;;3.85;0.93;;;3.20;99.90;;;;;;4972935;28;20054;-73
2023/03/27 04:17:19;;;;;;;4.90;1.00;;;3.10;99.90;;;;;;4981413;28;20297;-73
2023/03/27 04:19:45;;;;;;;2.08;0.70;;;3.10;99.90;;;;;;4983933;28;20078;-71
2023/03/27 04:22:16;;;;;;;8.60;0.87;;;3.20;99.90;;;;;;4984582;28;20080;-71
2023/03/27 04:24:43;;;;;;;3.53;0.82;;;3.10;99.90;;;;;;4983286;28;20061;-71
2023/03/27 04:27:12;;;;;;;12.25;1.00;;;3.10;99.90;;;;;;4981274;28;20507;-71
2023/03/27 04:29:42;;;;;;;7.80;1.90;;;3.10;99.90;;;;;;4985762;28;20088;-73
2023/03/27 04:32:08;;;;;;;4.20;1.00;;;3.20;99.90;;;;;;4989392;28;20557;-72
2023/03/27 04:34:37;;;;;;;9.27;1.45;;;3.20;99.90;;;;;;5001435;28;20058;-72
2023/03/27 04:37:03;;;;;;;8.55;1.23;;;3.20;99.90;;;;;;5000563;28;20531;-72
2023/03/27 04:39:29;;;;;;;5.88;1.42;;;3.20;99.90;;;;;;4977806;28;20048;-72
2023/03/27 04:41:57;;;;;;;4.07;1.00;;;3.20;99.90;;;;;;4987396;28;20052;-72
2023/03/27 04:44:25;;;;;;;4.28;1.30;;;3.20;99.90;;;;;;4985739;28;20033;-75
2023/03/27 04:46:51;;;;;;;7.55;1.15;;;3.20;99.90;;;;;;4987224;28;20056;-73
2023/03/27 04:49:17;;;;;;;7.87;1.37;;;3.30;99.90;;;;;;4998433;28;20103;-76
2023/03/27 04:51:44;;;;;;;;;;;3.40;99.90;;;;;;4986221;28;20109;-75
2023/03/27 04:54:09;;;;;;;6.78;0.88;;;3.40;99.90;;;;;;4994790;28;19921;-75
2023/03/27 04:56:35;;;;;;;6.07;1.50;;;3.40;99.90;;;;;;5003005;28;20524;-75
2023/03/27 04:59:04;;;;;;;3.30;1.53;;;3.40;99.90;;;;;;4987345;28;20818;-78
2023/03/27 05:01:30;;;;;;;5.97;1.80;;;3.40;99.90;;;;;;4983800;28;20050;-76
2023/03/27 05:03:56;;;;;;;5.47;1.05;;;3.40;99.90;;;;;;4987335;28;20060;-75
2023/03/27 05:06:22;;;;;;;8.48;1.17;;;3.40;99.90;;;;;;4981103;28;20096;-70
2023/03/27 05:08:48;;;;;;;5.68;1.50;;;3.40;99.90;;;;;;4986123;28;20188;-70
2023/03/27 05:11:14;;;;;;;9.18;1.00;;;3.40;99.90;;;;;;4999341;28;20049;-70
2023/03/27 05:13:40;;;;;;;9.20;2.73;;;3.40;99.90;;;;;;4988276;28;20046;-71
2023/03/27 05:16:08;;;;;;;6.78;1.30;;;3.40;99.90;;;;;;4987499;28;20053;-70
2023/03/27 05:18:33;;;;;;;4.10;1.15;;;3.40;99.90;;;;;;4977217;28;20136;-71
2023/03/27 05:20:59;;;;;;;6.87;0.60;;;3.30;99.90;;;;;;4997241;28;20491;-70
2023/03/27 05:23:25;;;;;;;6.73;0.80;;;3.40;99.90;;;;;;5004020;28;20502;-70
2023/03/27 05:25:52;;;;;;;2.97;1.00;;;3.30;99.90;;;;;;4980923;28;20038;-70
2023/03/27 05:28:17;;;;;;;1.92;1.10;;;3.30;99.90;;;;;;4982057;28;20152;-70
2023/03/27 05:30:43;;;;;;;7.20;1.23;;;3.20;99.90;;;;;;4985158;28;20128;-73
2023/03/27 05:33:12;;;;;;;3.92;1.48;;;3.20;99.90;;;;;;4987050;28;20041;-71
2023/03/27 05:35:41;;;;;;;4.78;1.23;;;3.20;99.90;;;;;;5005677;28;20053;-71
2023/03/27 05:38:07;;;;;;;6.13;1.00;;;3.20;99.90;;;;;;4982681;28;21060;-71
2023/03/27 05:40:33;;;;;;;5.30;0.75;;;3.20;99.90;;;;;;4987229;28;20399;-71
2023/03/27 05:43:00;;;;;;;3.60;0.77;;;3.20;99.90;;;;;;4991217;28;20058;-70
2023/03/27 05:45:26;;;;;;;5.65;1.27;;;3.20;99.90;;;;;;5003625;28;20069;-74
2023/03/27 05:47:53;;;;;;;4.82;0.82;;;3.20;99.90;;;;;;4985002;28;20057;-71
2023/03/27 05:50:21;;;;;;;3.63;1.08;;;3.20;99.90;;;;;;4984923;28;20154;-72
2023/03/27 05:52:52;;;;;;;3.63;0.70;;;3.10;99.90;;;;;;4986270;28;20068;-72
2023/03/27 05:55:18;;;;;;;7.10;1.50;;;3.20;99.90;;;;;;5005957;28;20038;-72
2023/03/27 05:57:44;;;;;;;4.90;1.10;;;3.20;99.90;;;;;;5002233;28;20381;-71
2023/03/27 06:00:15;;;;;;;7.40;1.00;;;3.20;99.90;;;;;;5004462;28;20399;-73
2023/03/27 06:02:44;;;;;;;3.63;0.93;;;3.20;99.90;;;;;;4987697;28;20041;-74
2023/03/27 06:05:14;;;;;;;1.63;0.63;;;3.20;99.90;;;;;;4989646;28;20050;-70
2023/03/27 06:07:43;;;;;;;4.05;0.60;;;3.20;99.90;;;;;;5005552;28;20507;-72
2023/03/27 06:10:12;;;;;;;5.35;0.80;;;3.20;99.90;;;;;;4977411;28;20128;-70
2023/03/27 06:12:38;;;;;;;4.90;0.82;;;3.30;99.90;;;;;;4985304;28;20050;-70
2023/03/27 06:15:08;;;;;;;2.47;0.90;;;3.20;99.90;;;;;;4985089;28;20419;-70
2023/03/27 06:17:35;;;;;;;5.88;0.73;;;3.30;99.90;;;;;;4987947;28;20270;-70
2023/03/27 06:20:06;;;;;;;1.90;0.88;;;3.30;99.90;;;;;;4988563;28;20041;-70
2023/03/27 06:22:41;;;;;;;2.33;0.85;;;3.30;99.90;;;;;;4987649;28;20196;-71
2023/03/27 06:25:07;;;;;;;7.00;1.13;;;3.40;99.90;;;;;;5000197;28;20041;-70
2023/03/27 06:27:33;;;;;;;6.55;1.20;;;3.40;99.90;;;;;;4986815;28;20219;-70
2023/03/27 06:29:59;;;;;;;2.63;0.70;;;3.40;99.90;;;;;;4985907;28;20572;-70
2023/03/27 06:32:24;;;;;;;4.67;1.00;;;3.40;99.90;;;;;;4985728;28;20034;-70
2023/03/27 06:34:59;;;;;;;3.00;0.57;;;3.40;99.90;;;;;;5005617;28;20274;-75
2023/03/27 06:37:25;;;;;;;3.63;0.70;;;3.40;99.90;;;;;;4984954;28;20068;-74
2023/03/27 06:39:50;;;;;;;1.90;0.50;;;3.50;99.90;;;;;;4986133;28;20150;-70
2023/03/27 06:42:16;;;;;;;5.00;0.93;;;3.50;99.90;;;;;;4997811;28;20046;-70
2023/03/27 06:44:41;;;;;;;2.63;0.60;;;3.60;99.90;;;;;;4982875;28;20060;-70
2023/03/27 06:47:07;;;;;;;8.07;1.00;;;3.70;99.90;;;;;;5004607;28;20559;-70
2023/03/27 06:49:33;;;;;;;4.37;0.80;;;3.70;99.90;;;;;;5001092;28;20116;-70
2023/03/27 06:51:58;;;;;;;1.73;0.67;;;3.80;99.90;;;;;;4995962;28;20088;-69
2023/03/27 06:54:24;;;;;;;6.57;1.97;;;3.80;99.90;;;;;;5007199;28;20033;-69
2023/03/27 06:56:49;;;;;;;3.03;0.70;;;3.90;99.90;;;;;;4991444;28;20053;-71
2023/03/27 06:59:15;;;;;;;7.73;0.93;;;4.00;99.90;;;;;;5006950;28;20049;-72
2023/03/27 07:01:42;;;;;;;3.37;0.60;;;4.10;99.90;;;;;;4981817;28;20063;-72
2023/03/27 07:04:08;;;;;;;9.73;0.73;;;4.10;99.90;;;;;;5006674;28;20115;-72
2023/03/27 07:06:33;;;;;;;8.10;0.67;;;4.20;99.90;;;;;;4990048;28;20050;-71
2023/03/27 07:08:59;;;;;;;3.30;0.37;;;4.20;99.90;;;;;;4978483;28;20089;-71
2023/03/27 07:11:25;;;;;;;2.75;0.55;;;4.30;99.90;;;;;;5006558;28;20112;-71
2023/03/27 07:13:51;;;;;;;5.43;0.93;;;4.40;99.90;;;;;;4992337;28;20038;-71
2023/03/27 07:16:17;;;;;;;7.00;0.60;;;4.60;99.90;;;;;;5004061;28;20156;-71
2023/03/27 07:18:42;;;;;;;1.73;0.57;;;4.70;99.90;;;;;;5009658;28;20046;-70
2023/03/27 07:21:08;;;;;;;3.83;0.67;;;4.80;99.90;;;;;;5006170;28;20284;-70
2023/03/27 07:23:34;;;;;;;7.20;0.90;;;4.90;99.90;;;;;;4983034;28;20100;-70
2023/03/27 07:26:00;;;;;;;2.07;0.70;;;5.00;99.90;;;;;;4992964;28;20049;-70
2023/03/27 07:28:26;;;;;;;4.18;0.60;;;5.00;99.90;;;;;;4986638;28;20132;-71
2023/03/27 07:30:52;;;;;;;7.72;0.98;;;4.90;99.90;;;;;;5004487;28;20124;-70
2023/03/27 07:33:17;;;;;;;4.70;0.60;;;4.90;99.90;;;;;;5016556;23;20513;-72
2023/03/27 07:35:45;;;;;;;4.20;0.73;;;4.90;99.90;;;;;;5002150;28;20045;-73
2023/03/27 07:38:10;;;;;;;7.30;0.93;;;4.80;99.90;;;;;;5007991;28;20041;-72
2023/03/27 07:40:37;;;;;;;3.80;0.83;;;4.90;99.90;;;;;;5006736;28;20045;-73
2023/03/27 07:43:05;;;;;;;2.90;0.65;;;4.90;99.90;;;;;;5008761;28;20054;-72
2023/03/27 07:45:32;;;;;;;5.78;0.70;;;4.90;99.90;;;;;;5014861;28;20041;-72
2023/03/27 07:48:24;;;;;;;3.60;0.80;;;5.00;99.90;;;;;;5024268;28;20041;-73
2023/03/27 07:50:50;;;;;;;2.75;0.70;;;5.00;99.90;;;;;;5004614;28;20053;-72
2023/03/27 07:53:18;;;;;;;3.87;0.87;;;4.90;99.90;;;;;;5024055;28;20049;-72
2023/03/27 07:55:45;;;;;;;5.18;0.90;;;4.80;99.90;;;;;;5027241;28;20046;-73
2023/03/27 07:58:10;;;;;;;;;;;4.70;99.90;;;;;;5011641;28;20067;-72
2023/03/27 08:00:37;;;;;;;4.53;1.00;;;4.60;99.90;;;;;;5009654;28;20029;-73
2023/03/27 08:03:05;;;;;;;4.45;0.70;;;4.60;99.90;;;;;;5025750;28;20037;-72
2023/03/27 08:05:31;;;;;;;8.38;0.77;;;4.50;99.90;;;;;;5024715;28;20528;-73
2023/03/27 08:07:57;;;;;;;4.85;1.98;;;4.50;99.90;;;;;;5023923;28;20049;-72
2023/03/27 08:10:22;;;;;;;2.63;1.00;;;4.40;99.90;;;;;;5024117;28;20037;-72
2023/03/27 08:12:48;;;;;;;5.03;0.70;;;4.50;99.90;;;;;;5027818;28;20118;-72
2023/03/27 08:15:14;;;;;;;1.57;0.50;;;4.60;99.90;;;;;;5007876;28;20497;-72
2023/03/27 08:17:40;;;;;;;2.35;0.70;;;4.70;99.90;;;;;;5025813;28;20042;-73
2023/03/27 08:20:13;;;;;;;2.22;0.70;;;4.90;99.90;;;;;;5010901;28;20076;-73
2023/03/27 08:22:39;;;;;;;3.40;0.68;;;5.20;99.90;;;;;;5009140;28;20126;-73
2023/03/27 08:25:06;;;;;;;4.27;0.87;;;5.40;99.90;;;;;;5023461;28;20135;-72
2023/03/27 08:27:32;;;;;;;2.80;0.90;;;5.60;99.90;;;;;;5009119;28;20352;-73
2023/03/27 08:29:59;;;;;;;1.43;0.37;;;5.40;99.90;;;;;;5006568;28;20176;-73
2023/03/27 08:32:25;;;;;;;0.57;0.22;;;5.00;99.90;;;;;;5005824;28;20525;-73
2023/03/27 08:34:51;;;;;;;2.45;0.43;;;4.60;99.90;;;;;;5004567;28;20094;-73
2023/03/27 08:37:17;;;;;;;4.20;0.70;;;4.30;99.90;;;;;;5005087;28;20045;-73
2023/03/27 08:39:45;;;;;;;0.47;0.30;;;4.10;99.90;;;;;;5008525;28;20038;-73
2023/03/27 08:42:21;;;;;;;0.90;0.20;;;4.00;99.90;;;;;;5006170;28;20091;-73
2023/03/27 08:44:51;;;;;;;5.05;0.60;;;3.90;99.90;;;;;;4995585;28;20399;-73
2023/03/27 08:47:30;;;;;;;0.70;0.20;;;3.80;99.90;;;;;;5000590;28;20483;-73
2023/03/27 08:49:57;;;;;;;1.50;0.35;;;3.80;99.90;;;;;;5006422;28;20049;-73
2023/03/27 08:52:25;;;;;;;0.50;0.40;;;3.90;99.90;;;;;;5002157;28;20042;-73
2023/03/27 08:55:19;;;;;;;1.55;0.32;;;3.90;99.90;;;;;;5006510;28;20042;-73
2023/03/27 08:57:45;;;;;;;2.55;0.50;;;4.00;99.90;;;;;;4999450;28;20049;-72
2023/03/27 09:00:21;;;;;;;2.55;0.40;;;4.10;99.90;;;;;;5022448;28;20532;-72
2023/03/27 09:02:52;;;;;;;2.10;0.73;;;4.20;99.90;;;;;;5003734;28;20104;-73
2023/03/27 09:05:22;;;;;;;2.28;0.68;;;4.30;99.90;;;;;;5010298;28;20041;-73
2023/03/27 09:08:12;;;;;;;4.22;0.50;;;4.50;99.90;;;;;;5011712;28;20045;-72
2023/03/27 09:10:46;;;;;;;5.85;1.20;;;4.70;99.90;;;;;;5022616;28;20045;-73
2023/03/27 09:13:42;;;;;;;6.85;0.50;;;4.80;99.90;;;;;;5009426;28;20121;-72
2023/03/27 09:16:48;;;;;;;2.40;0.57;;;5.00;99.90;;;;;;5006891;28;20084;-73
2023/03/27 09:19:30;;;;;;;1.90;0.57;;;5.20;99.90;;;;;;4972288;28;20384;-72
2023/03/27 09:22:14;;;;;;;4.20;1.08;;;5.40;99.90;;;;;;5011930;28;20141;-72
2023/03/27 09:24:47;;;;;;;5.13;1.00;;;5.60;99.90;;;;;;5008735;28;20395;-72
2023/03/27 09:27:23;;;;;;;4.82;0.77;;;5.80;99.90;;;;;;5012153;28;20052;-72
2023/03/27 09:30:18;;;;;;;4.10;0.70;;;6.00;99.90;;;;;;5005859;28;20041;-72
2023/03/27 09:32:52;;;;;;;7.40;0.73;;;6.20;99.90;;;;;;5014254;28;20046;-72
2023/03/27 09:35:19;;;;;;;4.00;1.08;;;6.20;99.90;;;;;;5011112;28;21021;-72
2023/03/27 09:37:47;;;;;;;3.05;0.57;;;6.20;99.90;;;;;;4995891;28;20044;-71
2023/03/27 09:40:53;;;;;;;8.43;1.42;;;6.20;99.90;;;;;;5011150;28;20256;-71
2023/03/27 09:43:32;;;;;;;7.38;1.10;;;6.30;99.90;;;;;;4974826;28;20057;-72
2023/03/27 09:45:58;;;;;;;4.10;0.98;;;6.30;99.90;;;;;;5011356;28;20475;-72
2023/03/27 09:48:45;;;;;;;2.55;0.80;;;6.40;99.90;;;;;;5015661;28;20041;-72
2023/03/27 09:51:37;;;;;;;8.57;1.70;;;6.50;99.90;;;;;;5011426;28;20136;-72
2023/03/27 09:54:04;;;;;;;4.45;1.30;;;6.60;99.90;;;;;;5006495;28;20499;-72
2023/03/27 09:56:33;;;;;;;9.95;2.50;;;6.70;99.90;;;;;;5016315;28;20459;-72
2023/03/27 09:58:59;;;;;;;5.50;2.20;;;6.90;99.90;;;;;;5011162;28;20447;-71
2023/03/27 10:01:33;;;;;;;10.32;2.38;;;6.90;99.90;;;;;;5023412;28;20095;-72
2023/03/27 10:03:59;;;;;;;7.50;2.88;;;6.90;99.90;;;;;;5011343;28;20055;-72
2023/03/27 10:06:51;;;;;;;9.40;1.77;;;7.00;99.90;;;;;;5008642;28;20042;-71
2023/03/27 10:09:22;;;;;;;7.18;1.90;;;7.10;99.90;;;;;;5009290;28;20056;-71
2023/03/27 10:11:50;;;;;;;8.73;2.03;;;7.20;99.90;;;;;;5023006;28;20068;-71
2023/03/27 10:14:18;;;;;;;11.00;1.88;;;7.20;99.90;;;;;;5004158;28;20072;-71
2023/03/27 10:16:46;;;;;;;3.83;1.15;;;7.30;99.90;;;;;;5010252;28;20056;-71
2023/03/27 10:19:28;;;;;;;1.85;0.50;;;7.30;99.90;;;;;;5010800;28;20410;-71
2023/03/27 10:22:02;;;;;;;5.95;0.75;;;7.40;99.90;;;;;;5028292;28;20113;-71
2023/03/27 10:24:35;;;;;;;5.00;0.70;;;7.50;99.90;;;;;;5007656;28;20099;-71
2023/03/27 10:27:05;;;;;;;3.08;0.50;;;7.60;99.90;;;;;;5024933;28;20107;-71
2023/03/27 10:29:34;;;;;;;2.22;0.68;;;7.60;99.90;;;;;;5008063;28;20056;-71
2023/03/27 10:32:02;;;;;;;5.35;1.45;;;7.60;99.90;;;;;;5006872;28;20049;-71
2023/03/27 10:34:31;;;;;;;5.07;1.63;;;7.60;99.90;;;;;;5009937;28;20045;-71
2023/03/27 10:37:00;;;;;;;8.55;2.92;;;7.70;99.90;;;;;;5004110;28;20046;-71
2023/03/27 10:39:28;;;;;;;10.90;2.30;;;7.80;99.90;;;;;;5012528;28;20099;-71
2023/03/27 10:41:55;;;;;;;4.15;1.38;;;7.90;99.90;;;;;;5008241;28;20041;-71
2023/03/27 10:44:24;;;;;;;3.15;0.90;;;8.00;99.90;;;;;;5000215;28;20122;-71
2023/03/27 10:46:51;;;;;;;2.10;0.60;;;8.10;99.90;;;;;;5010665;28;20045;-71
2023/03/27 10:49:42;;;;;;;2.92;0.90;;;8.20;99.90;;;;;;5018665;28;20094;-71
2023/03/27 10:52:17;;;;;;;3.05;0.52;;;8.10;99.90;;;;;;5010461;28;20077;-71
2023/03/27 10:55:01;;;;;;;4.65;0.68;;;7.80;99.90;;;;;;4999447;28;20500;-71
2023/03/27 10:57:29;;;;;;;3.15;0.43;;;7.20;99.90;;;;;;5009223;28;20442;-71
2023/03/27 11:00:21;;;;;;;2.50;0.35;;;6.80;99.90;;;;;;5008128;28;20152;-71
2023/03/27 11:03:10;;;;;;;3.17;0.70;;;6.70;99.90;;;;;;4995732;28;20044;-71
2023/03/27 11:05:43;;;;;;;0.90;0.32;;;6.80;99.90;;;;;;5006461;28;20136;-72
2023/03/27 11:08:22;;;;;;;2.80;0.90;;;7.00;99.90;;;;;;4986843;28;20289;-71
2023/03/27 11:10:49;;;;;;;7.75;1.27;;;7.20;99.90;;;;;;5026496;28;20197;-72
2023/03/27 11:13:32;;;;;;;7.68;1.92;;;7.50;99.90;;;;;;5007591;28;20085;-72
2023/03/27 11:16:13;;;;;;;7.13;1.10;;;7.80;99.90;;;;;;5000990;28;20041;-72
2023/03/27 11:18:47;;;;;;;2.42;0.70;;;7.90;99.90;;;;;;5026539;28;20104;-71
2023/03/27 11:21:36;;;;;;;9.57;1.05;;;7.90;99.90;;;;;;5009024;28;20041;-71
2023/03/27 11:24:04;;;;;;;4.70;0.80;;;8.10;99.90;;;;;;5004161;28;20076;-71
2023/03/27 11:26:41;;;;;;;2.25;0.70;;;8.20;99.90;;;;;;5026394;28;20041;-71
2023/03/27 11:29:15;;;;;;;1.97;0.43;;;8.40;99.90;;;;;;5024945;28;20037;-72
2023/03/27 11:31:44;;;;;;;4.30;0.68;;;8.50;99.90;;;;;;5006026;28;20042;-71
2023/03/27 11:34:10;;;;;;;3.22;0.55;;;8.70;99.90;;;;;;5018289;28;20131;-71
2023/03/27 11:37:00;;;;;;;6.43;1.17;;;8.50;99.90;;;;;;5010369;28;20141;-71
2023/03/27 11:39:48;;;;;;;8.93;0.70;;;8.20;99.90;;;;;;5007199;28;20072;-71
2023/03/27 11:42:29;;;;;;;6.70;0.90;;;8.00;99.90;;;;;;5013456;28;20057;-71
2023/03/27 11:44:55;;;;;;;3.38;0.77;;;8.00;99.90;;;;;;5006465;28;20088;-71
2023/03/27 11:47:39;;;;;;;8.02;1.10;;;8.00;99.90;;;;;;5010120;28;20132;-71
2023/03/27 11:50:22;;;;;;;5.68;0.77;;;8.10;99.90;;;;;;4999596;28;20045;-71
2023/03/27 11:53:15;;;;;;;6.30;0.77;;;8.30;99.90;;;;;;5000745;28;20049;-72
2023/03/27 11:56:09;;;;;;;3.20;0.80;;;8.60;99.90;;;;;;4999257;28;20046;-71
2023/03/27 11:59:11;;;;;;;4.53;0.80;;;8.80;99.90;;;;;;5012544;28;20046;-71
2023/03/27 12:01:46;;;;;;;4.95;0.45;;;8.80;99.90;;;;;;5003276;28;20443;-71
2023/03/27 12:04:24;;;;;;;3.65;0.50;;;8.70;99.90;;;;;;5002511;28;20134;-71
2023/03/27 12:07:23;;;;;;;1.85;0.60;;;8.60;99.90;;;;;;5009569;28;20045;-72
2023/03/27 12:10:04;;;;;;;6.97;1.75;;;8.50;99.90;;;;;;5014223;28;20168;-71
2023/03/27 12:13:09;;;;;;;5.75;0.77;;;8.50;96.80;;;;;;5022237;28;20493;-71
2023/03/27 12:15:56;;;;;;;5.60;0.93;;;8.60;99.00;;;;;;5018851;28;20053;-71
2023/03/27 12:18:42;;;;;;;2.67;0.43;;;8.90;97.60;;;;;;5000210;28;20080;-71
2023/03/27 12:21:25;;;;;;;6.53;0.60;;;9.10;98.50;;;;;;5004782;28;20053;-72
2023/03/27 12:24:09;;;;;;;2.67;0.70;;;9.10;95.60;;;;;;4982952;28;20049;-71
2023/03/27 12:27:04;;;;;;;4.32;0.50;;;9.00;98.30;;;;;;5004151;28;20046;-71
2023/03/27 12:29:41;;;;;;;5.38;1.25;;;8.80;96.40;;;;;;5004309;28;20590;-71
2023/03/27 12:32:18;;;;;;;5.38;0.80;;;8.70;97.80;;;;;;5008897;28;20136;-72
2023/03/27 12:34:57;;;;;;;5.10;0.75;;;8.70;97.00;;;;;;5002562;28;20049;-72
2023/03/27 12:37:29;;;;;;;2.13;0.65;;;8.60;97.80;;;;;;5000198;28;20299;-72
2023/03/27 12:39:59;;;;;;;6.78;0.95;;;8.60;98.80;;;;;;5007970;28;20046;-71
2023/03/27 12:42:47;;;;;;;7.85;1.60;;;8.80;98.50;;;;;;5010403;28;20040;-71
2023/03/27 12:45:15;;;;;;;7.93;1.30;;;9.00;99.70;;;;;;5026549;28;20521;-71
2023/03/27 12:48:06;;;;;;;3.38;0.70;;;9.10;99.90;;;;;;5000736;28;20054;-72
2023/03/27 12:50:40;;;;;;;9.27;1.00;;;8.90;99.90;;;;;;5018866;28;20376;-71
2023/03/27 12:53:05;;;;;;;2.55;0.77;;;8.40;99.90;;;;;;4988602;28;20044;-71
2023/03/27 12:55:35;;;;;;;4.40;0.70;;;8.00;99.90;;;;;;5006938;28;20049;-71
2023/03/27 12:58:03;;;;;;;4.07;0.60;;;7.70;99.90;;;;;;5009716;28;20046;-71
2023/03/27 13:00:30;;;;;;;5.97;1.05;;;7.50;99.90;;;;;;5010948;28;20180;-72
2023/03/27 13:03:33;;;;;;;8.43;1.05;;;7.60;99.90;;;;;;5012578;28;20049;-72
2023/03/27 13:06:29;;;;;;;5.15;0.70;;;7.90;99.90;;;;;;5016978;28;20511;-71
2023/03/27 13:09:22;;;;;;;3.40;0.80;;;7.90;99.90;;;;;;5005464;28;20049;-72
2023/03/27 13:12:09;;;;;;;5.57;0.80;;;7.90;99.90;;;;;;5024042;28;20386;-72
2023/03/27 13:15:00;;;;;;;5.03;0.88;;;7.80;99.90;;;;;;5004395;28;20704;-72
2023/03/27 13:18:03;;;;;;;9.48;1.00;;;7.90;99.90;;;;;;4999806;28;20070;-72
2023/03/27 13:21:10;;;;;;;3.35;0.68;;;8.30;99.90;;;;;;5011462;28;20116;-72
2023/03/27 13:24:20;;;;;;;1.83;0.63;;;8.60;99.90;;;;;;4989729;28;20084;-72
2023/03/27 13:26:55;;;;;;;6.25;0.70;;;8.70;99.90;;;;;;5008729;28;20356;-72
2023/03/27 13:29:23;;;;;;;4.07;0.93;;;8.80;99.90;;;;;;5010503;28;20044;-72
2023/03/27 13:31:49;;;;;;;2.90;0.73;;;8.80;99.90;;;;;;5008997;28;20115;-71
2023/03/27 13:34:42;;;;;;;10.20;1.13;;;8.70;99.90;;;;;;5064330;22;20436;-72
2023/03/27 13:37:10;;;;;;;3.88;0.60;;;8.50;99.90;;;;;;4993332;28;20467;-72
2023/03/27 13:40:06;;;;;;;5.50;0.95;;;8.40;99.90;;;;;;4998107;28;20044;-72
2023/03/27 13:42:34;;;;;;;5.18;0.60;;;8.40;99.90;;;;;;4989558;28;20038;-72
2023/03/27 13:45:21;;;;;;;1.80;0.50;;;8.50;99.90;;;;;;4990376;28;20454;-72
2023/03/27 13:48:06;;;;;;;;;;;8.70;99.50;;;;;;5004699;28;20454;-72
2023/03/27 13:50:55;;;;;;;3.55;0.55;;;8.90;98.60;;;;;;5000969;28;20000;-71